createdAt,value
2019-06-10T00:00:50.816Z,5.10
2019-06-10T00:03:25.634Z,5.07
2019-06-10T00:06:00.865Z,6.00
2019-06-10T00:08:32.917Z,5.30
2019-06-10T00:11:05.072Z,5.57
2019-06-10T00:13:38.103Z,5.63
2019-06-10T00:16:21.614Z,5.50
2019-06-10T00:18:51.321Z,5.63
2019-06-10T00:21:25.382Z,5.20
2019-06-10T00:23:54.912Z,5.30
2019-06-10T00:26:30.825Z,5.50
2019-06-10T00:29:23.767Z,5.33
2019-06-10T00:32:06.523Z,5.90
2019-06-10T00:34:35.805Z,5.33
2019-06-10T00:37:14.338Z,5.57
2019-06-10T00:39:46.578Z,5.57
2019-06-10T00:42:21.433Z,5.63
2019-06-10T00:44:54.108Z,5.07
2019-06-10T00:47:27.454Z,5.73
2019-06-10T00:50:05.203Z,5.57
2019-06-10T00:52:38.114Z,5.60
2019-06-10T00:55:11.804Z,5.73
2019-06-10T00:57:57.861Z,5.43
2019-06-10T01:00:35.483Z,5.00
2019-06-10T01:03:15.310Z,5.50
2019-06-10T01:06:03.452Z,5.10
2019-06-10T01:08:40.572Z,4.77
2019-06-10T01:11:31.007Z,5.53
2019-06-10T01:14:01.554Z,5.13
2019-06-10T01:16:54.386Z,5.57
2019-06-10T01:19:50.901Z,5.70
2019-06-10T01:22:31.579Z,5.33
2019-06-10T01:25:05.523Z,5.10
2019-06-10T01:27:40.905Z,5.90
2019-06-10T01:30:23.518Z,5.50
2019-06-10T01:33:08.262Z,5.63
2019-06-10T01:35:48.284Z,5.13
2019-06-10T01:38:24.033Z,5.20
2019-06-10T01:41:01.705Z,5.70
2019-06-10T01:43:40.669Z,5.70
2019-06-10T01:46:14.143Z,5.77
2019-06-10T01:48:48.307Z,6.13
2019-06-10T01:51:31.538Z,5.67
2019-06-10T01:54:15.286Z,5.27
2019-06-10T01:56:51.012Z,5.83
2019-06-10T01:59:25.346Z,5.27
2019-06-10T02:02:02.883Z,5.60
2019-06-10T02:07:24.518Z,5.43
2019-06-10T02:10:01.145Z,5.70
2019-06-10T02:12:32.038Z,6.17
2019-06-10T02:15:03.409Z,5.93
2019-06-10T02:17:33.741Z,5.30
2019-06-10T02:20:04.275Z,5.87
2019-06-10T02:22:41.079Z,6.00
2019-06-10T02:25:15.121Z,5.50
2019-06-10T02:27:47.295Z,5.70
2019-06-10T02:30:50.519Z,5.63
2019-06-10T02:33:37.020Z,5.50
2019-06-10T02:36:18.215Z,5.33
2019-06-10T02:39:07.773Z,5.50
2019-06-10T02:41:44.808Z,4.80
2019-06-10T02:44:21.751Z,5.40
2019-06-10T02:47:09.015Z,4.60
2019-06-10T02:49:59.109Z,4.80
2019-06-10T02:52:32.987Z,4.70
2019-06-10T02:55:05.609Z,5.20
2019-06-10T02:57:40.280Z,5.30
2019-06-10T03:00:20.869Z,4.60
2019-06-10T03:02:55.749Z,5.10
2019-06-10T03:05:49.100Z,5.00
2019-06-10T03:08:27.449Z,4.80
2019-06-10T03:11:05.747Z,4.87
2019-06-10T03:13:45.177Z,4.73
2019-06-10T03:16:34.625Z,4.97
2019-06-10T03:19:07.399Z,4.50
2019-06-10T03:21:52.265Z,4.73
2019-06-10T03:24:25.350Z,4.87
2019-06-10T03:27:23.573Z,4.83
2019-06-10T03:30:14.779Z,5.97
2019-06-10T03:32:48.858Z,5.07
2019-06-10T03:35:27.235Z,4.97
2019-06-10T03:38:06.334Z,4.57
2019-06-10T03:40:40.580Z,4.87
2019-06-10T03:43:23.812Z,4.67
2019-06-10T03:46:09.635Z,4.70
2019-06-10T03:49:13.296Z,4.80
2019-06-10T03:51:45.742Z,4.67
2019-06-10T03:54:19.282Z,4.67
2019-06-10T03:56:56.029Z,4.90
2019-06-10T03:59:39.095Z,5.00
2019-06-10T04:02:28.494Z,5.00
2019-06-10T04:05:46.337Z,5.77
2019-06-10T04:08:52.269Z,5.70
2019-06-10T04:11:42.848Z,5.60
2019-06-10T04:14:25.076Z,4.67
2019-06-10T04:17:08.574Z,4.37
2019-06-10T04:20:09.379Z,4.33
2019-06-10T04:22:37.765Z,4.63
2019-06-10T04:25:11.996Z,5.00
2019-06-10T04:27:42.438Z,4.83
2019-06-10T04:30:16.327Z,4.77
2019-06-10T04:32:47.528Z,4.70
2019-06-10T04:35:24.383Z,5.10
2019-06-10T04:37:57.876Z,4.60
2019-06-10T04:40:44.906Z,4.90
2019-06-10T04:43:20.514Z,4.67
2019-06-10T04:45:54.600Z,4.77
2019-06-10T04:48:28.093Z,4.80
2019-06-10T04:51:08.335Z,4.90
2019-06-10T04:53:52.432Z,5.17
2019-06-10T04:56:42.881Z,4.77
2019-06-10T04:59:15.756Z,4.50
2019-06-10T05:01:53.061Z,4.73
2019-06-10T05:04:32.826Z,5.17
2019-06-10T05:07:13.851Z,4.20
2019-06-10T05:12:52.594Z,4.30
2019-06-10T05:15:48.807Z,4.30
2019-06-10T05:18:22.561Z,4.10
2019-06-10T05:20:58.779Z,3.80
2019-06-10T05:23:33.225Z,3.70
2019-06-10T05:26:06.598Z,4.60
2019-06-10T05:28:43.520Z,4.07
2019-06-10T05:31:15.055Z,6.70
2019-06-10T05:33:48.886Z,3.20
2019-06-10T05:36:20.618Z,7.13
2019-06-10T05:38:52.717Z,4.03
2019-06-10T05:41:34.827Z,4.10
2019-06-10T05:44:25.238Z,3.17
2019-06-10T05:46:58.729Z,2.63
2019-06-10T05:49:36.279Z,2.23
2019-06-10T05:52:12.629Z,2.60
2019-06-10T05:54:46.204Z,2.87
2019-06-10T05:57:33.503Z,2.80
2019-06-10T06:00:14.625Z,2.73
2019-06-10T06:05:45.535Z,2.60
2019-06-10T06:08:15.850Z,3.20
2019-06-10T06:10:59.759Z,3.20
2019-06-10T06:13:34.171Z,3.40
2019-06-10T06:16:23.082Z,3.07
2019-06-10T06:18:58.927Z,3.00
2019-06-10T06:21:34.961Z,3.37
2019-06-10T06:24:04.819Z,3.30
2019-06-10T06:26:59.500Z,3.37
2019-06-10T06:29:39.921Z,3.20
2019-06-10T06:32:13.058Z,3.23
2019-06-10T06:34:43.365Z,2.93
2019-06-10T06:37:17.866Z,3.20
2019-06-10T06:39:52.316Z,3.23
2019-06-10T06:42:23.032Z,3.40
2019-06-10T06:45:03.063Z,3.40
2019-06-10T06:47:35.700Z,3.77
2019-06-10T06:50:07.874Z,3.50
2019-06-10T06:53:12.549Z,3.63
2019-06-10T06:55:15.766Z,3.40
2019-06-10T06:57:53.356Z,3.00
2019-06-10T07:00:53.150Z,3.53
2019-06-10T07:03:12.556Z,3.07
2019-06-10T07:06:13.166Z,4.20
2019-06-10T07:09:00.225Z,3.33
2019-06-10T07:11:33.955Z,2.87
2019-06-10T07:14:05.276Z,3.77
2019-06-10T07:16:37.780Z,3.20
2019-06-10T07:19:08.948Z,3.47
2019-06-10T07:22:11.395Z,3.03
2019-06-10T07:24:36.033Z,3.17
2019-06-10T07:27:05.960Z,3.43
2019-06-10T07:29:54.393Z,3.00
2019-06-10T07:32:25.455Z,3.10
2019-06-10T07:34:55.738Z,2.97
2019-06-10T07:37:34.935Z,2.40
2019-06-10T07:40:25.667Z,2.67
2019-06-10T07:43:02.413Z,2.37
2019-06-10T07:45:33.817Z,3.57
2019-06-10T07:48:04.316Z,5.07
2019-06-10T07:50:36.532Z,10.87
2019-06-10T07:53:07.923Z,3.50
2019-06-10T07:55:41.348Z,2.90
2019-06-10T07:58:15.862Z,7.53
2019-06-10T08:00:48.498Z,6.90
2019-06-10T08:03:18.585Z,4.97
2019-06-10T08:05:52.478Z,2.90
2019-06-10T08:08:32.854Z,2.60
2019-06-10T08:11:05.723Z,3.40
2019-06-10T08:13:47.967Z,2.10
2019-06-10T08:16:18.359Z,2.60
2019-06-10T08:19:15.952Z,3.30
2019-06-10T08:21:22.696Z,2.80
2019-06-10T08:23:54.057Z,2.40
2019-06-10T08:26:23.423Z,2.43
2019-06-10T08:28:53.307Z,2.10
2019-06-10T08:31:22.931Z,2.03
2019-06-10T08:33:53.353Z,2.00
2019-06-10T08:36:23.596Z,1.90
2019-06-10T08:38:53.383Z,2.53
2019-06-10T08:41:23.312Z,2.10
2019-06-10T08:43:53.155Z,3.70
2019-06-10T08:46:22.842Z,2.50
2019-06-10T08:48:52.742Z,9.33
2019-06-10T08:51:23.713Z,15.07
2019-06-10T08:53:53.547Z,4.20
2019-06-10T08:56:23.005Z,4.63
2019-06-10T08:58:54.027Z,3.60
2019-06-10T09:01:23.757Z,3.80
2019-06-10T09:03:53.888Z,2.70
2019-06-10T09:06:23.421Z,3.63
2019-06-10T09:08:54.557Z,2.40
2019-06-10T09:11:24.810Z,2.07
2019-06-10T09:13:55.062Z,2.00
2019-06-10T09:16:26.049Z,2.00
2019-06-10T09:18:59.051Z,2.00
2019-06-10T09:21:35.096Z,1.80
2019-06-10T09:24:13.043Z,2.00
2019-06-10T09:26:54.820Z,1.80
2019-06-10T09:29:32.732Z,1.90
2019-06-10T09:32:03.531Z,2.40
2019-06-10T09:34:41.376Z,2.10
2019-06-10T09:37:16.497Z,1.70
2019-06-10T09:39:59.229Z,1.80
2019-06-10T09:42:33.299Z,1.80
2019-06-10T09:45:03.712Z,1.63
2019-06-10T09:47:44.502Z,1.90
2019-06-10T09:50:16.104Z,2.60
2019-06-10T09:52:50.446Z,2.20
2019-06-10T09:55:23.345Z,1.63
2019-06-10T09:57:59.968Z,2.10
2019-06-10T10:00:48.499Z,1.87
2019-06-10T10:03:16.635Z,2.63
2019-06-10T10:05:59.444Z,2.27
2019-06-10T10:08:32.703Z,2.70
2019-06-10T10:11:03.264Z,1.40
2019-06-10T10:13:35.336Z,1.10
2019-06-10T10:16:10.275Z,0.77
2019-06-10T10:18:47.276Z,0.80
2019-06-10T10:21:57.141Z,0.90
2019-06-10T10:24:33.447Z,1.20
2019-06-10T10:27:09.475Z,1.10
2019-06-10T10:29:47.162Z,1.27
2019-06-10T10:32:23.162Z,1.20
2019-06-10T10:34:56.577Z,0.80
2019-06-10T10:37:35.866Z,1.10
2019-06-10T10:40:07.588Z,0.90
2019-06-10T10:42:44.997Z,1.00
2019-06-10T10:45:13.325Z,1.00
2019-06-10T10:47:47.136Z,1.13
2019-06-10T10:50:22.522Z,0.80
2019-06-10T10:52:55.099Z,0.90
2019-06-10T10:55:28.183Z,1.03
2019-06-10T10:58:19.853Z,0.90
2019-06-10T11:00:57.680Z,0.70
2019-06-10T11:03:26.258Z,0.90
2019-06-10T11:06:00.931Z,4.90
2019-06-10T11:08:35.297Z,0.70
2019-06-10T11:11:13.599Z,0.80
2019-06-10T11:13:47.380Z,0.90
2019-06-10T11:16:27.415Z,0.70
2019-06-10T11:19:02.549Z,1.20
2019-06-10T11:21:33.030Z,1.00
2019-06-10T11:24:04.836Z,0.90
2019-06-10T11:26:38.835Z,1.43
2019-06-10T11:29:11.236Z,0.80
2019-06-10T11:31:46.295Z,1.40
2019-06-10T11:34:23.475Z,1.13
2019-06-10T11:36:55.087Z,1.00
2019-06-10T11:39:26.699Z,1.30
2019-06-10T11:41:57.955Z,1.50
2019-06-10T11:44:33.974Z,1.63
2019-06-10T11:47:06.025Z,1.00
2019-06-10T11:49:36.284Z,1.03
2019-06-10T11:52:07.777Z,1.67
2019-06-10T11:54:53.654Z,1.30
2019-06-10T11:57:09.009Z,1.10
2019-06-10T11:59:39.144Z,7.10
2019-06-10T12:02:09.123Z,1.30
2019-06-10T12:04:39.042Z,1.40
2019-06-10T12:07:09.056Z,1.10
2019-06-10T12:09:44.175Z,1.63
2019-06-10T12:12:16.054Z,1.13
2019-06-10T12:14:46.005Z,1.40
2019-06-10T12:17:40.089Z,1.60
2019-06-10T12:19:56.480Z,1.10
2019-06-10T12:22:33.085Z,1.10
2019-06-10T12:25:30.537Z,1.43
2019-06-10T12:27:38.057Z,1.40
2019-06-10T12:30:14.201Z,1.33
2019-06-10T12:32:45.451Z,1.10
2019-06-10T12:41:23.206Z,1.00
2019-06-10T12:43:54.776Z,1.23
2019-06-10T12:46:26.658Z,1.00
2019-06-10T12:49:01.714Z,0.90
2019-06-10T12:51:34.049Z,0.90
2019-06-10T12:54:06.228Z,0.87
2019-06-10T12:56:42.358Z,0.80
2019-06-10T12:59:18.027Z,0.60
2019-06-10T13:01:52.936Z,1.03
2019-06-10T13:04:22.173Z,0.90
2019-06-10T13:06:55.967Z,0.90
2019-06-10T13:09:34.384Z,0.70
2019-06-10T13:12:05.379Z,0.77
2019-06-10T13:14:36.793Z,0.93
2019-06-10T13:17:15.972Z,1.20
2019-06-10T13:19:47.472Z,1.30
2019-06-10T13:22:19.805Z,1.37
2019-06-10T13:24:53.564Z,1.00
2019-06-10T13:27:23.689Z,1.30
2019-06-10T13:29:59.893Z,1.30
2019-06-10T13:32:32.460Z,1.10
2019-06-10T13:35:12.458Z,0.93
2019-06-10T13:37:45.263Z,1.10
2019-06-10T13:40:26.369Z,1.27
2019-06-10T13:42:57.939Z,1.20
2019-06-10T13:45:34.523Z,1.83
2019-06-10T13:48:11.533Z,1.20
2019-06-10T13:50:42.232Z,1.20
2019-06-10T13:53:14.180Z,1.33
2019-06-10T13:55:47.088Z,1.20
2019-06-10T13:58:23.182Z,1.17
2019-06-10T14:01:04.053Z,1.33
2019-06-10T14:03:35.557Z,1.20
2019-06-10T14:06:32.325Z,1.07
2019-06-10T14:08:43.821Z,2.67
2019-06-10T14:11:16.145Z,1.50
2019-06-10T14:13:45.813Z,1.20
2019-06-10T14:16:16.277Z,1.00
2019-06-10T14:18:56.165Z,1.27
2019-06-10T14:21:33.076Z,1.30
2019-06-10T14:24:06.290Z,1.13
2019-06-10T14:26:48.639Z,1.30
2019-06-10T14:29:18.391Z,1.00
2019-06-10T14:31:58.931Z,0.70
2019-06-10T14:34:34.438Z,1.50
2019-06-10T14:37:07.730Z,1.00
2019-06-10T14:39:52.923Z,0.93
2019-06-10T14:42:32.205Z,1.30
2019-06-10T14:45:06.695Z,1.27
2019-06-10T14:47:36.748Z,1.10
2019-06-10T14:50:08.751Z,1.23
2019-06-10T14:52:38.540Z,1.20
2019-06-10T14:55:09.305Z,0.93
2019-06-10T14:57:42.615Z,1.13
2019-06-10T15:00:16.119Z,1.20
2019-06-10T15:02:43.964Z,1.80
2019-06-10T15:05:16.113Z,1.17
2019-06-10T15:07:46.602Z,1.13
2019-06-10T15:10:17.886Z,0.93
2019-06-10T15:12:48.820Z,0.70
2019-06-10T15:15:20.438Z,0.80
2019-06-10T15:17:52.489Z,1.10
2019-06-10T15:20:22.762Z,1.20
2019-06-10T15:22:52.859Z,0.90
2019-06-10T15:25:27.552Z,1.40
2019-06-10T15:27:54.675Z,1.30
2019-06-10T15:30:28.077Z,0.90
2019-06-10T15:33:02.881Z,1.40
2019-06-10T15:35:34.562Z,1.40
2019-06-10T15:38:05.418Z,1.20
2019-06-10T15:40:35.240Z,1.40
2019-06-10T15:43:09.623Z,1.33
2019-06-10T15:45:45.576Z,1.00
2019-06-10T15:48:18.840Z,1.67
2019-06-10T15:50:52.103Z,1.10
2019-06-10T15:53:25.392Z,1.03
2019-06-10T15:56:18.220Z,1.10
2019-06-10T15:58:26.815Z,1.30
2019-06-10T16:01:02.552Z,1.20
2019-06-10T16:03:33.066Z,1.33
2019-06-10T16:06:03.318Z,1.00
2019-06-10T16:08:33.576Z,1.63
2019-06-10T16:11:03.374Z,1.10
2019-06-10T16:13:33.035Z,1.20
2019-06-10T16:16:03.621Z,1.30
2019-06-10T16:18:37.763Z,1.50
2019-06-10T16:21:15.107Z,1.30
2019-06-10T16:23:53.398Z,1.60
2019-06-10T16:26:36.469Z,1.30
2019-06-10T16:29:08.696Z,1.10
2019-06-10T16:31:42.709Z,0.90
2019-06-10T16:34:12.913Z,1.10
2019-06-10T16:36:45.287Z,1.00
2019-06-10T16:39:19.015Z,1.20
2019-06-10T16:41:54.181Z,1.30
2019-06-10T16:44:34.642Z,1.20
2019-06-10T16:47:05.178Z,1.20
2019-06-10T16:49:38.565Z,1.30
2019-06-10T16:52:09.143Z,1.20
2019-06-10T16:54:41.938Z,1.20
2019-06-10T16:57:27.275Z,1.50
2019-06-10T16:59:57.081Z,1.40
2019-06-10T17:02:30.075Z,1.23
2019-06-10T17:05:03.154Z,0.70
2019-06-10T17:07:34.198Z,1.27
2019-06-10T17:10:06.643Z,1.10
2019-06-10T17:12:38.837Z,1.40
2019-06-10T17:15:12.900Z,0.90
2019-06-10T17:17:45.688Z,1.20
2019-06-10T17:20:23.598Z,1.30
2019-06-10T17:22:54.412Z,1.00
2019-06-10T17:25:26.908Z,1.20
2019-06-10T17:28:15.135Z,1.00
2019-06-10T17:30:30.964Z,1.10
2019-06-10T17:33:04.238Z,1.27
2019-06-10T17:35:36.830Z,1.40
2019-06-10T17:38:12.216Z,1.20
2019-06-10T17:40:44.675Z,1.40
2019-06-10T17:43:14.224Z,1.30
2019-06-10T17:45:44.468Z,1.60
2019-06-10T17:48:16.500Z,1.40
2019-06-10T17:50:52.273Z,1.10
2019-06-10T17:53:24.613Z,1.20
2019-06-10T17:55:59.333Z,1.13
2019-06-10T17:58:43.355Z,1.00
2019-06-10T18:01:04.099Z,1.03
2019-06-10T18:03:37.757Z,1.20
2019-06-10T18:06:09.330Z,1.00
2019-06-10T18:08:47.555Z,1.27
2019-06-10T18:11:18.494Z,0.80
2019-06-10T18:13:56.700Z,1.00
2019-06-10T18:16:28.262Z,1.20
2019-06-10T18:18:59.172Z,3.50
2019-06-10T18:21:34.706Z,1.30
2019-06-10T18:24:08.466Z,1.07
2019-06-10T18:26:44.874Z,1.00
2019-06-10T18:29:22.792Z,1.30
2019-06-10T18:31:55.010Z,6.10
2019-06-10T18:34:25.689Z,1.10
2019-06-10T18:36:59.084Z,1.20
2019-06-10T18:39:59.515Z,3.00
2019-06-10T18:42:33.135Z,1.50
2019-06-10T18:45:04.805Z,1.30
2019-06-10T18:47:37.264Z,1.00
2019-06-10T18:50:09.232Z,1.30
2019-06-10T18:52:43.132Z,1.43
2019-06-10T18:55:12.707Z,1.30
2019-06-10T18:57:45.426Z,2.20
2019-06-10T19:00:15.672Z,1.30
2019-06-10T19:02:46.086Z,1.20
2019-06-10T19:05:17.420Z,1.20
2019-06-10T19:07:52.888Z,1.20
2019-06-10T19:10:24.185Z,1.40
2019-06-10T19:13:02.331Z,1.63
2019-06-10T19:15:31.904Z,1.40
2019-06-10T19:18:06.478Z,1.20
2019-06-10T19:20:45.266Z,1.37
2019-06-10T19:23:18.191Z,1.60
2019-06-10T19:26:05.105Z,1.50
2019-06-10T19:28:38.757Z,1.30
2019-06-10T19:31:11.200Z,1.33
2019-06-10T19:33:45.606Z,1.00
2019-06-10T19:36:19.717Z,1.20
2019-06-10T19:38:50.003Z,1.17
2019-06-10T19:41:22.397Z,1.20
2019-06-10T19:43:56.070Z,2.03
2019-06-10T19:46:27.926Z,2.83
2019-06-10T19:49:03.263Z,1.07
2019-06-10T19:51:48.977Z,1.13
2019-06-10T19:54:19.757Z,0.90
2019-06-10T19:56:52.340Z,1.10
2019-06-10T19:59:28.099Z,1.33
2019-06-10T20:01:59.094Z,1.20
2019-06-10T20:04:35.918Z,1.23
2019-06-10T20:07:20.136Z,1.00
2019-06-10T20:09:52.222Z,1.00
2019-06-10T20:12:25.825Z,1.00
2019-06-10T20:14:56.991Z,1.00
2019-06-10T20:17:32.770Z,2.60
2019-06-10T20:20:09.228Z,5.23
2019-06-10T20:22:43.614Z,8.83
2019-06-10T20:25:17.280Z,3.67
2019-06-10T20:27:59.347Z,2.40
2019-06-10T20:30:33.240Z,1.47
2019-06-10T20:33:05.858Z,1.23
2019-06-10T20:35:58.673Z,1.10
2019-06-10T20:38:38.487Z,1.23
2019-06-10T20:41:12.701Z,1.10
2019-06-10T20:43:44.382Z,1.30
2019-06-10T20:46:18.876Z,1.60
2019-06-10T20:48:54.570Z,1.40
2019-06-10T20:51:27.528Z,1.30
2019-06-10T20:54:02.632Z,1.60
2019-06-10T20:56:41.091Z,1.30
2019-06-10T20:59:13.260Z,1.27
2019-06-10T21:01:49.155Z,1.30
2019-06-10T21:04:27.551Z,1.27
2019-06-10T21:07:05.111Z,1.30
2019-06-10T21:09:39.759Z,1.20
2019-06-10T21:12:13.020Z,1.20
2019-06-10T21:14:45.675Z,1.50
2019-06-10T21:17:18.988Z,1.50
2019-06-10T21:19:53.760Z,1.47
2019-06-10T21:22:47.531Z,1.40
2019-06-10T21:25:24.643Z,1.30
2019-06-10T21:28:02.740Z,1.67
2019-06-10T21:30:49.658Z,2.53
2019-06-10T21:33:43.799Z,1.70
2019-06-10T21:36:18.833Z,1.60
2019-06-10T21:38:56.894Z,1.63
2019-06-10T21:41:37.007Z,1.80
2019-06-10T21:44:14.997Z,2.27
2019-06-10T21:46:50.329Z,1.60
2019-06-10T21:49:28.521Z,1.60
2019-06-10T21:52:02.819Z,1.50
2019-06-10T21:57:45.638Z,1.20
2019-06-10T22:00:52.047Z,1.30
2019-06-10T22:03:12.545Z,1.40
2019-06-10T22:06:06.460Z,1.40
2019-06-10T22:08:50.058Z,1.43
2019-06-10T22:11:31.365Z,1.13
2019-06-10T22:14:17.097Z,1.20
2019-06-10T22:16:52.907Z,2.03
2019-06-10T22:19:26.562Z,1.40
2019-06-10T22:22:18.437Z,1.37
2019-06-10T22:24:53.620Z,2.17
2019-06-10T22:27:47.848Z,2.70
2019-06-10T22:30:20.074Z,2.00
2019-06-10T22:33:06.830Z,2.10
2019-06-10T22:36:06.024Z,1.60
2019-06-10T22:38:43.018Z,1.33
2019-06-10T22:41:22.556Z,1.50
2019-06-10T22:43:55.780Z,1.30
2019-06-10T22:46:32.196Z,1.27
2019-06-10T22:49:05.196Z,1.50
2019-06-10T22:51:42.874Z,1.50
2019-06-10T22:54:21.182Z,1.50
2019-06-10T22:56:58.153Z,1.50
2019-06-10T22:59:48.649Z,1.60
2019-06-10T23:05:33.102Z,1.50
2019-06-10T23:08:12.605Z,1.47
2019-06-10T23:11:03.311Z,1.77
2019-06-10T23:13:50.637Z,1.50
2019-06-10T23:16:23.888Z,1.50
2019-06-10T23:18:59.874Z,1.63
2019-06-10T23:21:35.897Z,1.60
2019-06-10T23:24:13.465Z,1.63
2019-06-10T23:26:53.764Z,1.50
2019-06-10T23:29:36.132Z,1.60
2019-06-10T23:32:42.237Z,1.70
2019-06-10T23:35:32.177Z,1.67
2019-06-10T23:38:08.376Z,2.00
2019-06-10T23:41:01.503Z,1.53
2019-06-10T23:43:42.338Z,1.37
2019-06-10T23:46:38.351Z,1.80
2019-06-10T23:49:35.965Z,1.57
2019-06-10T23:52:08.019Z,1.40
2019-06-10T23:58:17.794Z,1.20
